Latest Weather Observations for Townsville

IDQ60801

Issued at 1:35 pm EST Friday 19 September 2014 (issued every 30 minutes, with the page automatically refreshed every 10 minutes)

About weather observations | Map of weather stations | Latest weather observations for QLD | Other Formats
Station Details ID: 032040 Name: TOWNSVILLE AERO Lat: -19.25 Lon: 146.77 Height: 4.34 m
Data from the previous 72 hours. | See also: Recent months at Townsville
Date/Time
EST
Temp
°C
App
Temp
°C
Dew
Point
Rel
Hum
%
Delta-T
°C
Wind Press
QNH
hPa
Press
MSL
hPa
Rain
since 9 am
mm
Dir
 
Spd
km/h
Gust
km/h
Spd
kts
Gust
kts
19/01:30pm 26.1 24.1 17.3 58 5.5 NE 24 30 13 16 1016.3 - 0.0
19/01:00pm 27.1 25.6 16.4 52 6.6 NE 19 26 10 14 1016.5 - 0.0
19/12:30pm 26.4 25.4 15.7 51 6.5 ENE 15 20 8 11 1017.2 - 0.0
19/12:00pm 26.3 25.2 15.2 50 6.7 ENE 15 19 8 10 1017.5 1017.5 0.0
19/11:30am 26.3 25.1 16.0 53 6.3 ENE 17 24 9 13 1018.2 - 0.0
19/11:00am 25.8 24.4 15.6 53 6.2 ENE 17 24 9 13 1018.9 - 0.0
19/10:30am 25.5 24.3 17.1 59 5.2 ENE 19 28 10 15 1019.3 - 0.0
19/10:00am 25.8 24.7 17.3 59 5.3 ENE 19 26 10 14 1019.5 - 0.0
19/09:30am 25.3 24.2 17.3 61 5.0 ENE 19 28 10 15 1019.6 - 0.0
19/09:00am 25.0 24.4 17.5 63 4.7 ENE 17 22 9 12 1019.6 1019.6 0.0
19/08:30am 24.2 23.9 17.3 65 4.3 SE 15 19 8 10 1019.5 - 0.0
19/08:00am 22.7 22.5 17.7 73 3.1 SE 15 19 8 10 1019.1 - 0.0
19/07:30am 20.4 21.8 17.8 85 1.6 SSW 7 9 4 5 1018.7 - 0.0
19/07:00am 17.1 19.1 15.9 93 0.7 CALM 0 0 0 0 1018.3 - 0.0
19/06:30am 15.4 16.8 14.5 94 0.5 CALM 0 0 0 0 1018.0 - 0.0
19/06:00am 15.7 17.2 14.7 94 0.6 SSW 0 0 0 0 1017.6 1017.6 0.0
19/05:30am 16.2 17.7 14.6 90 0.9 CALM 0 0 0 0 1017.3 - 0.0
19/05:00am 16.3 18.0 15.3 94 0.6 CALM 0 0 0 0 1016.9 - 0.0
19/04:30am 15.6 17.1 14.7 94 0.5 CALM 0 6 0 3 1016.7 - 0.0
19/04:00am 15.4 15.7 14.5 94 0.5 SSW 6 7 3 4 1016.5 - 0.0
19/03:30am 15.7 17.1 14.5 93 0.7 CALM 0 4 0 2 1016.5 - 0.0
19/03:00am 16.4 17.6 15.0 91 0.8 SE 2 7 1 4 1016.6 1016.6 0.0
19/02:30am 18.8 19.1 17.1 90 1.0 SE 11 13 6 7 1016.8 - 0.0
19/02:00am 19.7 20.3 17.6 88 1.3 SSE 11 13 6 7 1017.0 - 0.0
19/01:30am 20.3 21.0 17.9 86 1.5 SSE 11 11 6 6 1017.3 - 0.0
19/01:00am 20.1 20.7 17.8 86 1.4 SE 11 13 6 7 1017.5 - 0.0
19/12:30am 20.5 21.2 17.9 85 1.6 SE 11 13 6 7 1017.6 - 0.0
19/12:00am 20.4 21.3 17.5 83 1.8 ESE 9 11 5 6 1017.6 1017.6 0.0
 
Date/Time
EST
Temp
°C
App
Temp
°C
Dew
Point
Rel
Hum
%
Delta-T
°C
Wind Press
QNH
hPa
Press
MSL
hPa
Rain
since 9 am
mm
Dir
 
Spd
km/h
Gust
km/h
Spd
kts
Gust
kts
18/11:30pm 20.3 20.6 17.0 81 2.0 ESE 11 11 6 6 1017.7 - 0.0
18/11:00pm 20.3 20.9 16.8 80 2.1 SE 9 11 5 6 1017.7 - 0.0
18/10:30pm 20.4 20.7 17.1 81 2.0 SE 11 13 6 7 1017.6 - 0.0
18/10:00pm 20.3 20.9 16.7 80 2.2 ESE 9 11 5 6 1017.4 - 0.0
18/09:30pm 20.1 20.4 16.1 78 2.4 SSE 9 11 5 6 1017.3 - 0.0
18/09:00pm 21.5 21.5 16.2 72 3.2 SE 11 15 6 8 1017.0 1017.0 0.0
18/08:30pm 21.2 22.2 16.8 76 2.7 ENE 7 9 4 5 1016.7 - 0.0
18/08:00pm 21.9 23.2 17.2 74 2.9 N 6 7 3 4 1016.4 - 0.0
18/07:30pm 21.3 23.3 17.0 76 2.6 N 2 9 1 5 1015.9 - 0.0
18/07:00pm 21.9 23.7 17.5 76 2.7 N 4 7 2 4 1015.5 - 0.0
18/06:30pm 23.2 23.4 16.7 67 4.0 N 11 15 6 8 1015.2 - 0.0
18/06:00pm 24.3 23.8 15.9 59 5.1 NNW 13 17 7 9 1014.9 1014.9 0.0
18/05:30pm 25.3 23.8 15.4 54 6.0 N 17 19 9 10 1014.6 - 0.0
18/05:00pm 26.2 22.7 12.3 42 8.0 N 22 30 12 16 1014.2 - 0.0
18/04:30pm 27.2 23.6 10.5 35 9.4 N 20 30 11 16 1013.9 - 0.0
18/04:00pm 28.2 22.8 6.4 25 11.5 N 24 30 13 16 1013.7 - 0.0
18/03:30pm 29.1 25.6 10.9 32 10.4 NNW 20 26 11 14 1013.5 - 0.0
18/03:00pm 29.9 26.9 10.6 30 11.0 NNE 17 19 9 10 1013.7 1013.7 0.0
18/02:30pm 29.8 27.3 14.0 38 9.5 ENE 20 26 11 14 1014.1 - 0.0
18/02:00pm 30.0 25.5 6.3 22 12.6 ENE 19 26 10 14 1014.5 - 0.0
18/01:30pm 30.9 25.2 -1.1 12 15.1 NE 19 26 10 14 1014.8 - 0.0
18/01:00pm 30.7 24.5 -3.2 11 15.4 NE 20 26 11 14 1015.3 - 0.0
18/12:30pm 28.4 25.9 16.1 47 7.6 ENE 24 30 13 16 1015.9 - 0.0
18/12:00pm 28.2 25.6 13.8 41 8.6 NE 20 26 11 14 1016.5 1016.5 0.0
18/11:30am 28.5 25.9 13.3 39 9.0 NE 19 24 10 13 1017.0 - 0.0
18/11:00am 27.9 24.6 11.0 35 9.6 NE 19 26 10 14 1017.4 - 0.0
18/10:30am 27.7 25.8 13.1 40 8.6 NE 15 20 8 11 1017.8 - 0.0
18/10:00am 27.8 26.6 11.6 36 9.3 NNE 9 15 5 8 1018.0 - 0.0
18/09:30am 26.7 26.2 9.2 33 9.6 WNW 2 11 1 6 1018.4 - 0.0
18/09:00am 25.2 25.5 12.1 44 7.5 NW 2 7 1 4 1018.5 1018.5 0.0
18/08:30am 22.9 24.9 15.9 64 4.2 CALM 0 4 0 2 1018.5 - 0.0
18/08:00am 21.0 21.2 13.1 60 4.5 S 4 9 2 5 1018.4 - 0.0
18/07:30am 18.7 19.6 12.8 68 3.3 CALM 0 6 0 3 1018.0 - 0.0
18/07:00am 15.8 16.8 13.1 84 1.5 CALM 0 0 0 0 1017.8 - 0.0
18/06:30am 14.9 14.1 11.7 81 1.7 NNW 7 9 4 5 1017.5 - 0.0
18/06:00am 15.0 15.0 11.3 78 2.0 NNW 2 9 1 5 1017.2 1017.2 0.0
18/05:30am 13.7 14.1 11.4 86 1.2 CALM 0 0 0 0 1016.9 - 0.0
18/05:00am 13.6 14.2 11.9 89 0.9 CALM 0 0 0 0 1016.6 - 0.0
18/04:30am 13.9 14.6 12.2 89 0.9 CALM 0 6 0 3 1016.4 - 0.0
18/04:00am 14.2 13.8 12.5 89 0.9 W 6 11 3 6 1016.2 - 0.0
18/03:30am 15.2 16.3 13.4 89 1.0 CALM 0 0 0 0 1016.1 - 0.0
18/03:00am 15.4 16.7 14.0 91 0.8 CALM 0 0 0 0 1016.1 1016.1 0.0
18/02:30am 16.0 17.3 14.2 89 1.0 CALM 0 0 0 0 1016.4 - 0.0
18/02:00am 17.0 18.2 14.9 87 1.2 NNW 2 7 1 4 1016.8 - 0.0
18/01:30am 16.5 18.2 15.1 91 0.8 CALM 0 0 0 0 1016.9 - 0.0
18/01:00am 16.9 18.2 14.1 83 1.6 CALM 0 0 0 0 1016.9 - 0.0
18/12:30am 18.1 19.9 15.4 84 1.6 CALM 0 0 0 0 1016.8 - 0.0
18/12:00am 18.2 20.0 15.5 84 1.6 CALM 0 0 0 0 1017.0 1017.0 0.0
 
Date/Time
EST
Temp
°C
App
Temp
°C
Dew
Point
Rel
Hum
%
Delta-T
°C
Wind Press
QNH
hPa
Press
MSL
hPa
Rain
since 9 am
mm
Dir
 
Spd
km/h
Gust
km/h
Spd
kts
Gust
kts
17/11:30pm 18.8 20.7 15.8 83 1.8 CALM 0 0 0 0 1017.0 - 0.0
17/11:00pm 19.2 21.1 15.7 80 2.1 CALM 0 0 0 0 1016.9 - 0.0
17/10:30pm 19.5 21.3 15.4 77 2.4 CALM 0 0 0 0 1016.8 - 0.0
17/10:00pm 20.1 21.8 15.2 73 2.9 CALM 0 0 0 0 1016.7 - 0.0
17/09:30pm 20.4 22.1 15.1 71 3.1 CALM 0 0 0 0 1016.7 - 0.0
17/09:00pm 20.0 21.4 14.5 70 3.2 CALM 0 0 0 0 1016.7 1016.7 0.0
17/08:30pm 20.1 21.4 14.2 69 3.4 CALM 0 0 0 0 1016.4 - 0.0
17/08:00pm 20.9 21.8 14.0 64 4.0 NNW 2 9 1 5 1016.0 - 0.0
17/07:30pm 21.0 22.3 14.1 64 4.0 CALM 0 0 0 0 1015.9 - 0.0
17/07:00pm 21.4 20.4 13.4 60 4.6 NNW 11 13 6 7 1015.5 - 0.0
17/06:30pm 22.3 20.9 13.3 56 5.2 NNW 13 17 7 9 1015.2 - 0.0
17/06:00pm 24.3 23.0 13.7 51 6.2 NNW 13 17 7 9 1014.8 1014.8 0.0
17/05:30pm 25.5 23.3 13.2 46 7.2 NNW 17 20 9 11 1014.4 - 0.0
17/05:00pm 27.2 25.2 11.4 37 9.0 N 13 19 7 10 1014.1 - 0.0
17/04:30pm 28.3 24.9 7.7 27 11.1 NE 15 19 8 10 1013.8 - 0.0
17/04:00pm 29.5 25.0 6.9 24 12.1 ENE 20 26 11 14 1013.6 - 0.0
17/03:30pm 30.2 24.0 4.1 19 13.4 NE 26 32 14 17 1013.5 - 0.0
17/03:00pm 29.2 23.3 7.6 25 11.7 NE 28 32 15 17 1013.6 1013.6 0.0
17/02:30pm 29.2 25.1 8.7 27 11.3 NE 20 28 11 15 1013.9 - 0.0
17/02:00pm 28.8 25.6 11.9 35 9.8 NE 20 26 11 14 1014.4 - 0.0
17/01:30pm 28.7 25.3 12.5 36 9.5 NE 22 28 12 15 1014.7 - 0.0
17/01:00pm 28.3 24.8 10.9 34 9.9 NE 20 26 11 14 1015.2 - 0.0
17/12:30pm 28.9 25.5 11.1 33 10.2 NE 20 26 11 14 1015.7 - 0.0
17/12:00pm 29.2 28.6 13.4 38 9.4 NNE 9 20 5 11 1016.0 1016.0 0.0
17/11:30am 27.2 25.5 13.5 42 8.1 NE 15 26 8 14 1016.5 - 0.0
17/11:00am 27.3 25.2 12.3 39 8.7 NE 15 20 8 11 1017.0 - 0.0
17/10:30am 27.1 26.6 13.8 44 7.9 NE 9 15 5 8 1017.2 - 0.0
17/10:00am 26.1 25.2 13.7 46 7.3 N 11 15 6 8 1017.4 - 0.0
17/09:30am 24.7 23.9 13.0 48 6.8 NW 9 11 5 6 1017.5 - 0.0
17/09:00am 24.4 25.3 16.0 59 5.1 NW 6 13 3 7 1017.5 1017.5 0.0
17/08:30am 23.0 24.3 16.2 65 4.1 NNW 4 11 2 6 1017.5 - 0.0
17/08:00am 21.5 23.1 16.9 75 2.8 SSW 4 7 2 4 1017.5 - 0.0
17/07:30am 19.2 21.6 17.1 88 1.3 CALM 0 2 0 1 1017.2 - 0.0
17/07:00am 16.9 18.9 16.1 95 0.5 CALM 0 0 0 0 1016.9 - 0.0
17/06:30am 15.5 15.8 15.0 97 0.3 SSW 7 9 4 5 1016.6 - 0.0
17/06:00am 15.3 15.7 14.8 97 0.3 SSW 6 7 3 4 1016.3 1016.3 0.0
17/05:31am 15.7 17.5 15.4 98 0.2 CALM 0 - 0 - 1016.1 - 0.0
17/05:30am 15.7 17.5 15.4 98 0.2 CALM 0 - 0 - 1016.0 - 0.0
17/05:27am 15.8 17.5 15.3 97 0.3 CALM 0 0 0 0 1016.0 - 0.0
17/05:06am 15.2 16.8 14.9 98 0.2 CALM 0 - 0 - 1015.9 - 0.0
17/05:00am 15.5 17.1 15.0 97 0.3 CALM 0 - 0 - 1015.8 - 0.0
17/04:58am 15.5 17.1 15.0 97 0.3 CALM 0 - 0 - 1015.8 - 0.0
17/04:49am 15.8 17.2 15.3 97 0.3 S 2 6 1 3 1015.8 - 0.0
17/04:30am 16.7 18.7 16.0 96 0.4 CALM 0 0 0 0 1015.5 - 0.0
17/04:00am 16.4 18.2 15.5 94 0.5 CALM 0 0 0 0 1015.6 - 0.0
17/03:30am 18.1 19.0 16.6 91 0.9 S 7 9 4 5 1015.7 - 0.0
17/03:00am 18.5 19.1 16.7 89 1.1 SSE 9 9 5 5 1015.6 1015.6 0.0
17/02:30am 18.7 19.7 16.9 89 1.1 SSE 7 9 4 5 1015.8 - 0.0
17/02:00am 19.3 20.4 17.2 88 1.3 S 7 9 4 5 1016.0 - 0.0
17/01:30am 19.1 21.6 17.3 89 1.1 CALM 0 0 0 0 1016.4 - 0.0
17/01:00am 19.4 21.9 17.3 88 1.3 CALM 0 0 0 0 1016.6 - 0.0
17/12:30am 19.6 22.2 17.5 88 1.3 CALM 0 0 0 0 1016.8 - 0.0
17/12:00am 19.8 22.4 17.5 86 1.4 CALM 0 0 0 0 1016.9 1016.9 0.0
 
Date/Time
EST
Temp
°C
App
Temp
°C
Dew
Point
Rel
Hum
%
Delta-T
°C
Wind Press
QNH
hPa
Press
MSL
hPa
Rain
since 9 am
mm
Dir
 
Spd
km/h
Gust
km/h
Spd
kts
Gust
kts
16/11:30pm 19.7 22.1 16.9 84 1.7 CALM 0 0 0 0 1017.1 - 0.0
16/11:00pm 20.7 21.9 17.4 81 2.0 N 7 9 4 5 1017.0 - 0.0
16/10:30pm 21.2 22.6 17.8 81 2.1 NNE 7 9 4 5 1016.9 - 0.0
16/10:00pm 21.8 24.6 17.9 78 2.4 CALM 0 0 0 0 1016.8 - 0.0
16/09:30pm 21.4 23.0 18.2 82 2.0 NNE 7 9 4 5 1016.8 - 0.0
16/09:00pm 21.8 22.2 18.1 79 2.3 NE 13 15 7 8 1016.6 1016.6 0.0
16/08:30pm 22.1 22.8 17.9 77 2.6 NE 11 17 6 9 1016.3 - 0.0
16/08:00pm 21.8 22.6 18.1 79 2.3 ENE 11 15 6 8 1016.0 - 0.0
16/07:30pm 21.9 21.9 18.2 79 2.3 NE 15 19 8 10 1015.6 - 0.0
16/07:00pm 22.2 21.9 18.2 78 2.5 ENE 17 22 9 12 1015.2 - 0.0
16/06:30pm 22.3 21.8 18.6 79 2.3 ENE 19 24 10 13 1014.8 - 0.0
16/06:00pm 22.7 21.5 18.4 76 2.7 ENE 22 28 12 15 1014.3 1014.3 0.0
16/05:30pm 23.6 22.0 18.4 72 3.3 ENE 24 30 13 16 1014.0 - 0.0
16/05:00pm 24.3 22.3 18.3 69 3.8 ENE 26 30 14 16 1013.6 - 0.0
16/04:30pm 24.9 23.1 17.9 65 4.4 ENE 24 32 13 17 1013.4 - 0.0
16/04:00pm 25.0 23.7 18.2 66 4.3 ENE 22 28 12 15 1013.3 - 0.0
16/03:30pm 25.4 23.1 18.5 65 4.4 ENE 28 33 15 18 1013.5 - 0.0
16/03:00pm 25.4 22.6 18.1 64 4.6 ENE 30 35 16 19 1013.6 1013.6 0.0
16/02:30pm 26.6 25.8 18.4 60 5.2 ENE 20 28 11 15 1013.8 - 0.0
16/02:00pm 26.1 25.0 17.8 60 5.2 NE 20 30 11 16 1014.2 - 0.0

Other Formats:

Comma delimited format used in spreadsheet applications
http://www.bom.gov.au/fwo/IDQ60801/IDQ60801.94294.axf

JavaScript Object Notation format (JSON) in row-major order
http://www.bom.gov.au/fwo/IDQ60801/IDQ60801.94294.json